Time;durP1;ratioP1;P1;durP2;ratioP2;P2;SDS_P1;SDS_P2;PMS_P1;PMS_P2;Temp;Humidity;BMP_temperature;BMP_pressure;BME280_temperature;BME280_humidity;BME280_pressure;Samples;Min_cycle;Max_cycle;Signal;HPM_P1;HPM_P2
2022/03/15 00:01:04;;;;;;;12.82;5.88;;;4.60;99.90;;;;;;5037597;28;20671;-57
2022/03/15 00:03:30;;;;;;;12.00;4.90;;;4.60;99.90;;;;;;5014502;28;20083;-58
2022/03/15 00:05:56;;;;;;;13.25;6.38;;;4.60;99.90;;;;;;5010456;28;20588;-57
2022/03/15 00:08:22;;;;;;;13.55;6.50;;;4.50;99.90;;;;;;5017251;28;20048;-55
2022/03/15 00:10:54;;;;;;;14.70;6.20;;;4.50;99.90;;;;;;5003180;28;20040;-55
2022/03/15 00:13:20;;;;;;;14.65;5.82;;;4.50;99.90;;;;;;5013023;28;20040;-58
2022/03/15 00:15:47;;;;;;;9.95;5.20;;;4.50;99.90;;;;;;5006687;28;20086;-57
2022/03/15 00:18:12;;;;;;;13.40;6.38;;;4.50;99.90;;;;;;5030776;28;20059;-57
2022/03/15 00:20:38;;;;;;;15.20;7.00;;;4.50;99.90;;;;;;4989229;28;20048;-55
2022/03/15 00:23:04;;;;;;;13.95;6.85;;;4.50;99.90;;;;;;5016365;28;20047;-57
2022/03/15 00:25:31;;;;;;;13.10;5.85;;;4.40;99.90;;;;;;5024937;28;20048;-57
2022/03/15 00:27:57;;;;;;;12.43;6.25;;;4.40;99.90;;;;;;5013236;28;20070;-57
2022/03/15 00:30:24;;;;;;;11.20;5.47;;;4.40;99.90;;;;;;5018425;28;20052;-56
2022/03/15 00:32:51;;;;;;;12.50;5.15;;;4.40;99.90;;;;;;5019224;28;20064;-58
2022/03/15 00:35:18;;;;;;;10.20;6.60;;;4.50;99.90;;;;;;4999813;28;20234;-54
2022/03/15 00:37:52;;;;;;;10.25;6.15;;;4.40;99.90;;;;;;5020442;28;20040;-57
2022/03/15 00:40:19;;;;;;;17.80;7.43;;;4.40;99.90;;;;;;4997146;28;20060;-56
2022/03/15 00:42:50;;;;;;;11.07;5.35;;;4.40;99.90;;;;;;5019087;28;20865;-57
2022/03/15 00:45:17;;;;;;;13.40;7.70;;;4.30;99.90;;;;;;5018266;28;20050;-57
2022/03/15 00:47:43;;;;;;;17.30;7.63;;;4.30;99.90;;;;;;5018913;28;20075;-56
2022/03/15 00:50:09;;;;;;;15.32;7.43;;;4.30;99.90;;;;;;5020693;28;20066;-58
2022/03/15 00:52:35;;;;;;;15.27;8.07;;;4.30;99.90;;;;;;5002644;28;20086;-57
2022/03/15 00:55:01;;;;;;;17.23;8.88;;;4.40;99.90;;;;;;5017020;28;20047;-58
2022/03/15 00:57:27;;;;;;;21.50;9.15;;;4.40;99.90;;;;;;5022704;28;20082;-58
2022/03/15 00:59:53;;;;;;;20.92;9.10;;;4.40;99.90;;;;;;5027300;28;20041;-55
2022/03/15 01:02:19;;;;;;;22.10;10.20;;;4.40;99.90;;;;;;5008272;28;20084;-57
2022/03/15 01:04:45;;;;;;;20.83;9.55;;;4.50;99.90;;;;;;5048555;28;20500;-54
2022/03/15 01:07:13;;;;;;;20.63;9.52;;;4.50;99.90;;;;;;5032817;28;20090;-53
2022/03/15 01:09:39;;;;;;;17.55;9.43;;;4.60;99.90;;;;;;5031279;28;20060;-56
2022/03/15 01:12:06;;;;;;;20.00;9.02;;;4.50;99.90;;;;;;5050111;28;20036;-56
2022/03/15 01:14:32;;;;;;;27.55;10.93;;;4.60;99.90;;;;;;5009974;28;20491;-56
2022/03/15 01:16:58;;;;;;;23.13;10.13;;;4.60;99.90;;;;;;5030779;28;20457;-55
2022/03/15 01:19:24;;;;;;;21.05;9.98;;;4.60;99.90;;;;;;5026191;28;20049;-55
2022/03/15 01:21:53;;;;;;;18.08;8.70;;;4.60;99.90;;;;;;5027633;28;20043;-56
2022/03/15 01:24:19;;;;;;;20.25;10.85;;;4.60;99.90;;;;;;5023332;28;20047;-57
2022/03/15 01:26:46;;;;;;;18.33;10.10;;;4.70;99.90;;;;;;5029126;28;20075;-55
2022/03/15 01:29:12;;;;;;;20.42;10.20;;;4.70;99.90;;;;;;5043930;28;20051;-58
2022/03/15 01:31:37;;;;;;;20.10;9.00;;;4.70;99.90;;;;;;5028353;28;20049;-54
2022/03/15 01:34:03;;;;;;;16.88;8.55;;;4.70;99.90;;;;;;5026524;28;20355;-56
2022/03/15 01:36:30;;;;;;;25.15;10.10;;;4.70;99.90;;;;;;5046008;28;20041;-54
2022/03/15 01:38:57;;;;;;;18.15;10.40;;;4.70;99.90;;;;;;5014461;28;20241;-58
2022/03/15 01:41:23;;;;;;;27.08;12.07;;;4.80;99.90;;;;;;5030276;28;20072;-57
2022/03/15 01:43:49;;;;;;;21.27;9.90;;;4.80;99.90;;;;;;5029478;28;20443;-57
2022/03/15 01:46:16;;;;;;;18.33;10.43;;;4.80;99.90;;;;;;5035185;28;20051;-58
2022/03/15 01:48:43;;;;;;;22.58;10.10;;;4.90;99.90;;;;;;5034293;28;20159;-58
2022/03/15 01:51:09;;;;;;;22.92;11.25;;;5.00;99.90;;;;;;5049600;28;20106;-57
2022/03/15 01:53:37;;;;;;;22.92;10.95;;;5.00;99.90;;;;;;5003044;28;20503;-57
2022/03/15 01:56:03;;;;;;;20.55;9.55;;;5.10;99.90;;;;;;5031394;28;20044;-57
2022/03/15 01:58:28;;;;;;;19.27;10.52;;;5.10;99.90;;;;;;5028136;28;20048;-56
2022/03/15 02:00:54;;;;;;;16.48;10.68;;;5.20;99.90;;;;;;5022253;28;20389;-57
2022/03/15 02:03:20;;;;;;;29.42;13.73;;;5.30;99.90;;;;;;5033265;28;20421;-54
2022/03/15 02:05:46;;;;;;;28.55;12.60;;;5.30;99.90;;;;;;5038249;22;20032;-56
2022/03/15 02:08:14;;;;;;;20.40;11.38;;;5.30;99.90;;;;;;5016793;28;20518;-57
2022/03/15 02:10:40;;;;;;;32.00;11.75;;;5.40;99.90;;;;;;5020048;28;20040;-58
2022/03/15 02:13:07;;;;;;;24.42;10.85;;;5.40;99.90;;;;;;5013588;28;20045;-57
2022/03/15 02:15:33;;;;;;;21.52;10.73;;;5.50;99.90;;;;;;4999399;28;20049;-53
2022/03/15 02:17:58;;;;;;;24.17;12.20;;;5.50;99.90;;;;;;5017452;28;20099;-57
2022/03/15 02:20:25;;;;;;;19.25;10.50;;;5.50;99.90;;;;;;5015461;28;20040;-57
2022/03/15 02:22:50;;;;;;;18.70;11.52;;;5.60;99.90;;;;;;5016611;28;20053;-56
2022/03/15 02:25:16;;;;;;;21.42;12.13;;;5.60;99.90;;;;;;4995435;28;20090;-58
2022/03/15 02:27:42;;;;;;;23.88;12.10;;;5.60;99.90;;;;;;5014918;28;20191;-56
2022/03/15 02:30:08;;;;;;;21.27;11.13;;;5.70;99.90;;;;;;5013372;28;20060;-56
2022/03/15 02:32:34;;;;;;;18.35;11.70;;;5.70;99.90;;;;;;5018023;28;21567;-57
2022/03/15 02:35:00;;;;;;;25.98;12.82;;;5.70;99.90;;;;;;5015087;28;21414;-57
2022/03/15 02:37:26;;;;;;;27.52;12.80;;;5.80;99.90;;;;;;5019200;28;20044;-56
2022/03/15 02:39:52;;;;;;;20.50;11.10;;;5.80;99.90;;;;;;5010243;28;20044;-58
2022/03/15 02:42:18;;;;;;;25.45;13.57;;;5.80;99.90;;;;;;5016800;28;20048;-57
2022/03/15 02:44:45;;;;;;;22.17;10.88;;;5.90;99.90;;;;;;5015240;28;20033;-55
2022/03/15 02:47:10;;;;;;;22.30;11.02;;;5.90;99.90;;;;;;5018735;28;20107;-58
2022/03/15 02:49:36;;;;;;;29.52;12.18;;;5.90;99.90;;;;;;5018078;28;20114;-57
2022/03/15 02:52:03;;;;;;;26.63;12.30;;;5.90;99.90;;;;;;5018034;28;20174;-55
2022/03/15 02:54:28;;;;;;;25.02;14.00;;;5.90;99.90;;;;;;5017123;28;20417;-56
2022/03/15 02:56:54;;;;;;;27.25;12.43;;;6.00;99.90;;;;;;5017025;28;20076;-56
2022/03/15 02:59:20;;;;;;;21.85;11.20;;;6.20;99.90;;;;;;4998918;28;20048;-58
2022/03/15 03:01:50;;;;;;;23.80;13.45;;;6.00;99.90;;;;;;5005490;28;20066;-56
2022/03/15 03:04:16;;;;;;;19.00;10.00;;;6.00;99.90;;;;;;5002383;28;20132;-58
2022/03/15 03:06:44;;;;;;;29.33;12.70;;;6.00;99.90;;;;;;4970167;28;1110917;-53
2022/03/15 03:09:11;;;;;;;22.73;11.18;;;6.00;99.90;;;;;;5005953;28;20106;-55
2022/03/15 03:11:37;;;;;;;20.73;13.38;;;6.10;99.90;;;;;;5005615;28;20055;-57
2022/03/15 03:14:04;;;;;;;21.80;11.75;;;6.10;99.90;;;;;;4998221;28;20052;-57
2022/03/15 03:16:30;;;;;;;23.27;10.50;;;6.10;99.90;;;;;;5000304;28;20787;-55
2022/03/15 03:18:59;;;;;;;19.15;10.65;;;6.10;99.90;;;;;;5002922;28;20076;-57
2022/03/15 03:21:28;;;;;;;22.70;11.45;;;6.20;99.90;;;;;;5000462;28;21573;-53
2022/03/15 03:23:57;;;;;;;17.67;11.73;;;6.20;99.90;;;;;;4993574;28;20041;-57
2022/03/15 03:26:24;;;;;;;22.42;12.07;;;6.20;99.90;;;;;;5001225;28;20041;-54
2022/03/15 03:28:50;;;;;;;17.63;10.57;;;6.20;99.90;;;;;;5004382;28;20044;-58
2022/03/15 03:31:16;;;;;;;27.52;12.68;;;6.20;99.90;;;;;;4987056;28;20037;-59
2022/03/15 03:33:43;;;;;;;23.55;11.75;;;6.20;99.90;;;;;;5004656;28;21479;-58
2022/03/15 03:36:09;;;;;;;20.25;11.40;;;6.30;99.90;;;;;;5006097;28;20127;-57
2022/03/15 03:38:36;;;;;;;22.42;11.30;;;6.30;99.90;;;;;;5007020;28;20048;-58
2022/03/15 03:41:03;;;;;;;19.30;12.00;;;6.30;99.90;;;;;;5005498;28;20068;-58
2022/03/15 03:43:29;;;;;;;19.45;10.60;;;6.30;99.90;;;;;;5021255;28;20041;-56
2022/03/15 03:45:56;;;;;;;19.80;10.07;;;6.40;99.90;;;;;;5030079;28;20033;-57
2022/03/15 03:48:23;;;;;;;20.25;10.20;;;6.40;99.90;;;;;;5017829;28;20047;-56
2022/03/15 03:50:50;;;;;;;21.10;11.02;;;6.40;99.90;;;;;;5015675;28;20077;-58
2022/03/15 03:53:17;;;;;;;22.30;10.82;;;6.40;99.90;;;;;;5019357;28;20296;-56
2022/03/15 03:55:44;;;;;;;15.23;8.85;;;6.50;99.90;;;;;;5018002;28;20047;-58
2022/03/15 03:58:10;;;;;;;24.75;12.68;;;6.50;99.90;;;;;;5013958;28;20231;-56
2022/03/15 04:00:36;;;;;;;22.58;12.27;;;6.40;99.90;;;;;;5014789;28;20060;-59
2022/03/15 04:03:02;;;;;;;27.30;11.77;;;6.50;99.90;;;;;;5018506;28;20045;-55
2022/03/15 04:05:30;;;;;;;23.70;10.68;;;6.50;99.90;;;;;;5021027;28;20431;-57
2022/03/15 04:07:59;;;;;;;22.95;12.70;;;6.50;99.90;;;;;;5023196;28;20044;-57
2022/03/15 04:10:27;;;;;;;23.25;13.23;;;6.50;99.90;;;;;;5023492;28;20403;-56
2022/03/15 04:12:54;;;;;;;26.30;13.10;;;6.50;99.90;;;;;;5016588;28;20318;-58
2022/03/15 04:15:20;;;;;;;19.17;11.95;;;6.60;99.90;;;;;;5002916;28;20522;-56
2022/03/15 04:17:45;;;;;;;26.77;12.20;;;6.60;99.90;;;;;;5019669;28;20041;-56
2022/03/15 04:20:11;;;;;;;18.17;10.57;;;6.50;99.90;;;;;;5016336;28;20784;-55
2022/03/15 04:22:37;;;;;;;21.73;13.07;;;6.60;99.90;;;;;;5024909;28;20931;-56
2022/03/15 04:25:03;;;;;;;21.10;12.45;;;6.60;99.90;;;;;;5023956;28;20490;-54
2022/03/15 04:27:29;;;;;;;22.02;12.30;;;6.60;99.90;;;;;;5019378;28;20044;-56
2022/03/15 04:29:55;;;;;;;24.13;12.63;;;6.50;99.90;;;;;;5007561;28;20049;-56
2022/03/15 04:32:20;;;;;;;30.23;14.10;;;6.50;99.90;;;;;;5013094;28;20706;-57
2022/03/15 04:34:46;;;;;;;18.88;11.93;;;6.50;99.90;;;;;;5003359;28;20110;-58
2022/03/15 04:37:12;;;;;;;25.20;13.05;;;6.50;99.90;;;;;;5021262;28;20377;-57
2022/03/15 04:39:38;;;;;;;25.55;12.77;;;6.50;99.90;;;;;;5012599;28;20083;-56
2022/03/15 04:42:05;;;;;;;29.92;13.82;;;6.50;99.90;;;;;;5016619;28;20080;-57
2022/03/15 04:44:31;;;;;;;24.17;14.77;;;6.50;99.90;;;;;;5012997;28;20084;-59
2022/03/15 04:46:56;;;;;;;25.33;13.75;;;6.50;99.90;;;;;;5016425;28;22313;-56
2022/03/15 04:49:22;;;;;;;22.23;13.30;;;6.50;99.90;;;;;;5001523;28;20519;-57
2022/03/15 04:51:48;;;;;;;23.85;13.07;;;6.40;99.90;;;;;;5003119;28;20043;-57
2022/03/15 04:54:14;;;;;;;21.05;12.13;;;6.40;99.90;;;;;;5017948;28;20629;-57
2022/03/15 04:56:40;;;;;;;16.65;11.18;;;6.40;99.90;;;;;;5005277;28;20181;-57
2022/03/15 04:59:05;;;;;;;24.80;13.32;;;6.30;99.90;;;;;;4997861;28;20094;-59
2022/03/15 05:01:31;;;;;;;20.83;12.90;;;6.30;99.90;;;;;;4996520;28;20848;-59
2022/03/15 05:03:57;;;;;;;27.55;13.88;;;6.30;99.90;;;;;;4985820;28;22565;-57
2022/03/15 05:06:23;;;;;;;18.90;12.10;;;6.30;99.90;;;;;;5003328;28;20096;-59
2022/03/15 05:08:48;;;;;;;22.20;13.18;;;6.20;99.90;;;;;;5005398;28;22713;-57
2022/03/15 05:11:18;;;;;;;24.10;11.88;;;6.30;99.90;;;;;;5013431;28;20618;-58
2022/03/15 05:13:46;;;;;;;24.88;11.55;;;6.20;99.90;;;;;;5004892;28;20049;-58
2022/03/15 05:16:15;;;;;;;19.73;11.63;;;6.20;99.90;;;;;;5008830;28;20072;-57
2022/03/15 05:18:41;;;;;;;22.33;15.10;;;6.20;99.90;;;;;;5009125;28;20045;-57
2022/03/15 05:21:08;;;;;;;20.10;13.82;;;6.20;99.90;;;;;;5004000;28;20037;-56
2022/03/15 05:23:34;;;;;;;23.25;14.57;;;6.20;99.90;;;;;;5007439;28;20055;-56
2022/03/15 05:26:00;;;;;;;24.73;14.57;;;6.20;99.90;;;;;;5008252;28;20095;-57
2022/03/15 05:28:26;;;;;;;28.08;15.23;;;6.20;99.90;;;;;;5007197;28;20068;-57
2022/03/15 05:30:53;;;;;;;16.38;10.43;;;6.20;99.90;;;;;;4991477;28;20522;-57
2022/03/15 05:33:19;;;;;;;27.17;14.98;;;6.20;99.90;;;;;;5008742;28;20049;-59
2022/03/15 05:35:44;;;;;;;28.30;14.68;;;6.20;99.90;;;;;;5007722;28;20196;-56
2022/03/15 05:38:10;;;;;;;23.38;15.50;;;6.20;99.90;;;;;;4983336;28;20167;-58
2022/03/15 05:40:37;;;;;;;26.17;14.05;;;6.10;99.90;;;;;;4991974;28;20045;-57
2022/03/15 05:43:03;;;;;;;24.02;14.43;;;6.10;99.90;;;;;;4987995;28;20315;-59
2022/03/15 05:45:29;;;;;;;24.10;15.02;;;6.00;99.90;;;;;;5004386;28;20447;-57
2022/03/15 05:47:55;;;;;;;25.17;16.35;;;6.10;99.90;;;;;;5030804;28;20045;-56
2022/03/15 05:50:22;;;;;;;28.45;16.33;;;6.10;99.90;;;;;;5014190;28;20051;-56
2022/03/15 05:52:48;;;;;;;35.13;17.63;;;6.10;99.90;;;;;;5027757;28;20037;-57
2022/03/15 05:55:14;;;;;;;23.60;13.65;;;6.10;99.90;;;;;;5009724;28;20048;-54
2022/03/15 05:57:40;;;;;;;33.28;20.33;;;6.00;99.90;;;;;;5008665;28;20352;-54
2022/03/15 06:00:07;;;;;;;24.55;15.48;;;6.00;99.90;;;;;;5007391;28;20059;-57
2022/03/15 06:02:33;;;;;;;35.88;20.75;;;6.10;99.90;;;;;;4993729;28;20041;-53
2022/03/15 06:04:59;;;;;;;41.08;24.83;;;6.10;99.90;;;;;;5007895;28;20126;-59
2022/03/15 06:07:28;;;;;;;38.80;22.73;;;6.00;99.90;;;;;;5037683;28;20404;-54
2022/03/15 06:09:54;;;;;;;36.92;23.75;;;6.10;99.90;;;;;;5009504;28;20037;-56
2022/03/15 06:12:23;;;;;;;37.05;21.58;;;6.10;99.90;;;;;;5025583;28;20047;-57
2022/03/15 06:14:49;;;;;;;38.83;24.08;;;6.10;99.90;;;;;;5025364;28;20487;-57
2022/03/15 06:17:15;;;;;;;26.25;17.92;;;6.00;99.90;;;;;;4988729;28;20044;-54
2022/03/15 06:19:41;;;;;;;33.15;19.77;;;6.00;99.90;;;;;;5042406;28;20041;-57
2022/03/15 06:22:06;;;;;;;27.80;17.63;;;6.00;99.90;;;;;;5022766;28;20476;-54
2022/03/15 06:24:32;;;;;;;36.20;19.92;;;6.00;99.90;;;;;;5005904;28;20040;-57
2022/03/15 06:26:58;;;;;;;26.63;15.40;;;6.00;99.90;;;;;;5026029;28;20079;-58
2022/03/15 06:29:27;;;;;;;28.30;15.45;;;6.10;99.90;;;;;;5010099;28;20346;-56
2022/03/15 06:31:53;;;;;;;26.20;15.90;;;6.10;99.90;;;;;;5020282;28;20048;-59
2022/03/15 06:34:20;;;;;;;27.05;16.83;;;6.10;99.90;;;;;;4997413;28;20052;-58
2022/03/15 06:36:46;;;;;;;42.83;27.25;;;6.20;99.90;;;;;;5020075;28;20083;-58
2022/03/15 06:39:12;;;;;;;45.47;26.63;;;6.20;99.90;;;;;;5015549;28;20044;-58
2022/03/15 06:41:39;;;;;;;27.80;18.30;;;6.20;99.90;;;;;;5006313;28;20155;-58
2022/03/15 06:44:08;;;;;;;25.25;16.17;;;6.30;99.90;;;;;;5015636;28;20053;-58
2022/03/15 06:46:34;;;;;;;21.95;14.00;;;6.30;99.90;;;;;;4993522;28;20036;-55
2022/03/15 06:49:00;;;;;;;34.97;22.50;;;6.30;99.90;;;;;;5012452;28;20049;-55
2022/03/15 06:51:26;;;;;;;37.45;23.77;;;6.30;99.90;;;;;;5032773;28;20102;-56
2022/03/15 06:53:52;;;;;;;32.33;17.65;;;6.30;99.90;;;;;;5025410;28;20083;-58
2022/03/15 06:56:20;;;;;;;34.10;19.35;;;6.40;99.90;;;;;;5018918;28;20068;-57
2022/03/15 06:58:46;;;;;;;34.40;19.65;;;6.40;99.90;;;;;;5033916;28;20045;-55
2022/03/15 07:01:12;;;;;;;39.45;26.65;;;6.30;99.90;;;;;;5027451;28;20558;-57
2022/03/15 07:03:38;;;;;;;56.22;37.88;;;6.40;99.90;;;;;;5031862;28;20152;-57
2022/03/15 07:06:03;;;;;;;46.63;30.17;;;6.40;99.90;;;;;;5027671;28;20052;-56
2022/03/15 07:08:30;;;;;;;45.42;30.50;;;6.40;99.90;;;;;;5029001;28;20033;-55
2022/03/15 07:10:56;;;;;;;53.95;29.52;;;6.50;99.90;;;;;;5009499;28;20029;-56
2022/03/15 07:13:22;;;;;;;34.92;21.02;;;6.50;99.90;;;;;;5031768;28;20052;-58
2022/03/15 07:15:48;;;;;;;38.45;19.15;;;6.50;99.90;;;;;;5018421;28;20073;-57
2022/03/15 07:18:15;;;;;;;27.73;16.08;;;6.60;99.90;;;;;;5032993;28;20049;-56
2022/03/15 07:20:41;;;;;;;36.80;19.67;;;6.60;99.90;;;;;;5030942;28;20045;-55
2022/03/15 07:23:07;;;;;;;25.08;16.55;;;6.60;99.90;;;;;;5019603;28;20033;-58
2022/03/15 07:25:33;;;;;;;29.08;18.05;;;6.60;99.90;;;;;;5034940;28;20033;-56
2022/03/15 07:27:59;;;;;;;31.67;18.23;;;6.60;99.90;;;;;;5038998;28;20034;-57
2022/03/15 07:30:25;;;;;;;22.35;14.05;;;6.70;99.90;;;;;;5030731;28;20435;-58
2022/03/15 07:32:50;;;;;;;30.35;17.13;;;6.70;99.90;;;;;;5036376;28;20523;-57
2022/03/15 07:35:16;;;;;;;27.67;14.10;;;6.80;99.90;;;;;;5015446;28;20098;-55
2022/03/15 07:37:55;;;;;;;33.72;17.67;;;6.80;99.90;;;;;;5038334;28;20045;-55
2022/03/15 07:40:22;;;;;;;30.10;15.73;;;6.90;99.90;;;;;;5026283;28;20504;-54
2022/03/15 07:42:49;;;;;;;30.27;15.88;;;6.90;99.90;;;;;;5026659;28;20043;-53
2022/03/15 07:45:15;;;;;;;28.23;17.05;;;7.00;99.90;;;;;;5033186;28;20279;-56
2022/03/15 07:47:41;;;;;;;28.05;16.92;;;7.00;99.90;;;;;;5021286;28;20571;-56
2022/03/15 07:50:07;;;;;;;29.20;15.90;;;7.10;99.90;;;;;;5015381;28;20044;-57
2022/03/15 07:52:33;;;;;;;28.83;17.27;;;7.10;99.90;;;;;;5026191;28;20391;-57
2022/03/15 07:54:59;;;;;;;26.10;16.25;;;7.20;99.90;;;;;;5027276;28;20049;-57
2022/03/15 07:57:25;;;;;;;25.00;15.57;;;7.20;99.90;;;;;;5015015;28;20045;-54
2022/03/15 07:59:51;;;;;;;25.83;16.33;;;7.30;99.90;;;;;;5037635;28;20411;-57
2022/03/15 08:02:17;;;;;;;29.77;18.08;;;7.30;99.90;;;;;;5029816;28;20497;-56
2022/03/15 08:04:43;;;;;;;30.63;16.83;;;7.40;99.90;;;;;;5033190;28;20044;-57
2022/03/15 08:07:09;;;;;;;28.77;16.65;;;7.40;99.90;;;;;;5032200;28;20369;-56
2022/03/15 08:09:38;;;;;;;30.60;17.35;;;7.40;99.90;;;;;;5036904;28;20076;-54
2022/03/15 08:12:05;;;;;;;31.75;15.68;;;7.50;99.90;;;;;;5036150;28;20165;-58
2022/03/15 08:14:30;;;;;;;32.17;17.48;;;7.50;99.90;;;;;;5039094;28;20053;-56
2022/03/15 08:16:56;;;;;;;26.67;14.80;;;7.60;99.90;;;;;;5033514;28;20037;-56
2022/03/15 08:19:22;;;;;;;33.22;17.40;;;7.70;99.90;;;;;;5034882;28;20053;-55
2022/03/15 08:21:48;;;;;;;38.50;18.05;;;7.70;99.90;;;;;;5034047;28;20029;-58
2022/03/15 08:24:14;;;;;;;32.90;17.88;;;7.80;99.90;;;;;;5029438;28;21296;-55
2022/03/15 08:26:40;;;;;;;30.45;16.83;;;7.80;99.90;;;;;;5038991;28;20392;-59
2022/03/15 08:29:07;;;;;;;36.30;19.92;;;7.90;99.90;;;;;;5039624;28;20052;-58
2022/03/15 08:31:33;;;;;;;34.97;18.70;;;8.00;99.90;;;;;;5038462;28;20141;-58
2022/03/15 08:33:59;;;;;;;30.08;18.52;;;8.00;99.90;;;;;;5035008;28;20032;-56
2022/03/15 08:36:25;;;;;;;44.63;21.42;;;8.00;99.90;;;;;;5034686;28;20048;-59
2022/03/15 08:38:50;;;;;;;32.08;19.77;;;8.10;99.90;;;;;;5023257;28;20052;-58
2022/03/15 08:41:16;;;;;;;36.95;22.25;;;8.20;99.90;;;;;;5056686;28;20097;-53
2022/03/15 08:43:42;;;;;;;36.00;18.73;;;8.30;99.90;;;;;;5035391;28;20487;-56
2022/03/15 08:46:08;;;;;;;39.88;22.55;;;8.30;99.90;;;;;;5029858;28;20036;-55
2022/03/15 08:48:34;;;;;;;50.97;22.35;;;8.30;99.90;;;;;;5030196;28;20405;-57
2022/03/15 08:51:00;;;;;;;43.10;23.10;;;8.30;99.90;;;;;;5025864;28;20041;-59
2022/03/15 08:53:32;;;;;;;43.67;24.20;;;8.50;99.90;;;;;;5030637;28;20056;-59
2022/03/15 08:55:58;;;;;;;37.58;21.83;;;8.50;99.90;;;;;;5028848;28;20029;-59
2022/03/15 08:58:24;;;;;;;45.15;24.45;;;8.60;99.90;;;;;;5036343;28;20037;-57
2022/03/15 09:00:51;;;;;;;41.28;23.27;;;8.70;99.90;;;;;;5038840;28;20126;-57
2022/03/15 09:03:17;;;;;;;37.10;24.70;;;8.80;99.90;;;;;;5032191;28;20056;-57
2022/03/15 09:05:43;;;;;;;44.70;24.42;;;8.80;99.90;;;;;;5032472;28;20044;-57
2022/03/15 09:08:09;;;;;;;40.05;25.02;;;8.80;99.90;;;;;;5035451;28;20041;-59
2022/03/15 09:10:35;;;;;;;45.47;24.65;;;8.90;99.90;;;;;;5020680;28;20037;-58
2022/03/15 09:13:03;;;;;;;44.65;25.25;;;8.90;99.90;;;;;;5033600;28;20037;-58
2022/03/15 09:15:29;;;;;;;40.42;24.33;;;9.00;99.90;;;;;;5016280;28;20044;-56
2022/03/15 09:17:57;;;;;;;42.97;26.55;;;9.00;99.90;;;;;;5016360;28;20139;-56
2022/03/15 09:20:24;;;;;;;44.08;25.05;;;9.00;99.90;;;;;;5034709;28;20490;-55
2022/03/15 09:22:50;;;;;;;45.10;25.67;;;9.10;99.90;;;;;;5034612;28;20040;-57
2022/03/15 09:25:16;;;;;;;41.40;25.15;;;9.10;99.90;;;;;;5029054;28;20033;-56
2022/03/15 09:27:42;;;;;;;37.08;23.25;;;9.10;99.90;;;;;;5029527;28;20028;-57
2022/03/15 09:30:08;;;;;;;41.85;23.05;;;9.20;99.90;;;;;;5029688;28;20146;-57
2022/03/15 09:32:34;;;;;;;37.70;23.35;;;9.30;99.90;;;;;;5028864;28;20094;-57
2022/03/15 09:34:59;;;;;;;36.47;23.88;;;9.30;99.90;;;;;;5016976;28;20049;-56
2022/03/15 09:37:25;;;;;;;38.17;24.35;;;9.40;99.90;;;;;;5027282;28;20814;-56
2022/03/15 09:39:52;;;;;;;34.40;23.77;;;9.50;99.90;;;;;;5024005;28;20033;-58
2022/03/15 09:42:20;;;;;;;37.15;23.15;;;9.60;99.90;;;;;;5027806;28;20040;-56
2022/03/15 09:44:48;;;;;;;34.67;23.42;;;9.70;99.90;;;;;;5028408;28;20060;-53
2022/03/15 09:47:17;;;;;;;34.83;22.20;;;9.80;99.90;;;;;;5028203;28;20085;-53
2022/03/15 09:49:45;;;;;;;41.58;23.85;;;9.90;99.90;;;;;;5024609;28;20054;-55
2022/03/15 09:52:11;;;;;;;34.03;22.73;;;10.00;99.90;;;;;;5004690;28;20191;-58
2022/03/15 09:54:38;;;;;;;34.45;22.08;;;10.00;99.90;;;;;;5003709;28;21097;-57
2022/03/15 09:57:05;;;;;;;37.50;23.45;;;10.00;99.90;;;;;;5024895;28;20471;-59
2022/03/15 09:59:32;;;;;;;36.47;23.33;;;10.20;99.90;;;;;;5036130;28;20220;-57
2022/03/15 10:01:59;;;;;;;36.28;21.83;;;10.20;99.90;;;;;;5024593;28;20037;-56
2022/03/15 10:04:26;;;;;;;32.67;20.50;;;10.30;99.90;;;;;;5030775;28;20048;-55
2022/03/15 10:06:52;;;;;;;34.53;20.13;;;10.40;99.90;;;;;;5028332;28;20432;-58
2022/03/15 10:09:19;;;;;;;36.88;20.45;;;10.50;99.90;;;;;;5030998;28;20048;-56
2022/03/15 10:11:44;;;;;;;33.55;21.38;;;10.50;99.90;;;;;;5028186;28;20049;-58
2022/03/15 10:14:11;;;;;;;35.22;21.67;;;10.50;99.90;;;;;;5024171;28;21342;-58
2022/03/15 10:16:41;;;;;;;34.15;20.70;;;10.60;99.90;;;;;;5030944;28;20052;-56
2022/03/15 10:19:10;;;;;;;36.47;22.30;;;10.60;99.90;;;;;;5026563;28;20400;-56
2022/03/15 10:21:42;;;;;;;39.45;23.75;;;10.60;99.90;;;;;;5024297;28;20546;-59
2022/03/15 10:24:09;;;;;;;31.75;20.05;;;10.60;99.90;;;;;;5026312;28;20047;-59
2022/03/15 10:26:39;;;;;;;31.17;20.95;;;10.60;99.90;;;;;;5027515;28;20423;-57
2022/03/15 10:29:07;;;;;;;28.50;20.48;;;10.60;99.90;;;;;;5032187;28;20446;-56
2022/03/15 10:31:34;;;;;;;38.30;22.27;;;10.60;99.90;;;;;;5027899;28;20126;-57
2022/03/15 10:34:03;;;;;;;30.75;21.60;;;10.60;99.90;;;;;;5033250;28;20102;-53
2022/03/15 10:36:45;;;;;;;36.50;23.23;;;10.60;99.90;;;;;;5023653;28;20042;-60
2022/03/15 10:39:13;;;;;;;31.08;21.73;;;10.60;99.90;;;;;;5025796;28;20503;-56
2022/03/15 10:41:55;;;;;;;33.80;21.40;;;10.70;99.90;;;;;;5033016;28;20029;-53
2022/03/15 10:44:27;;;;;;;36.72;21.70;;;10.70;99.90;;;;;;5028006;28;20111;-58
2022/03/15 10:47:05;;;;;;;28.83;19.48;;;10.70;99.90;;;;;;5026970;28;20037;-57
2022/03/15 10:49:47;;;;;;;29.90;20.25;;;10.80;99.90;;;;;;5014101;28;20449;-54
2022/03/15 10:52:36;;;;;;;32.40;20.50;;;10.90;99.90;;;;;;5012712;28;20071;-60
2022/03/15 10:55:12;;;;;;;28.75;20.48;;;10.90;99.90;;;;;;5019378;28;20390;-56
2022/03/15 10:57:46;;;;;;;31.90;19.13;;;10.90;99.90;;;;;;5029610;28;20068;-58
2022/03/15 11:00:12;;;;;;;32.35;19.80;;;10.90;99.90;;;;;;5003552;28;20075;-58
2022/03/15 11:02:42;;;;;;;27.13;17.77;;;10.90;99.90;;;;;;5026392;28;20030;-55
2022/03/15 11:05:08;;;;;;;27.98;16.73;;;10.90;99.90;;;;;;5033400;28;20049;-57
2022/03/15 11:07:42;;;;;;;28.23;18.20;;;11.00;99.90;;;;;;5032415;28;20052;-56
2022/03/15 11:10:14;;;;;;;28.00;16.95;;;11.00;99.90;;;;;;5035466;28;20045;-54
2022/03/15 11:13:06;;;;;;;24.30;16.40;;;11.00;99.90;;;;;;5016686;28;20123;-56
2022/03/15 11:15:34;;;;;;;25.00;16.55;;;10.90;99.90;;;;;;5035816;28;20299;-56
2022/03/15 11:18:04;;;;;;;26.08;18.13;;;10.80;99.90;;;;;;5010587;28;21996;-57
2022/03/15 11:20:36;;;;;;;25.13;16.70;;;10.80;99.90;;;;;;4998052;28;20049;-58
2022/03/15 11:23:05;;;;;;;24.50;16.40;;;10.70;99.90;;;;;;5030816;28;20037;-57
2022/03/15 11:25:41;;;;;;;24.10;16.85;;;10.70;99.90;;;;;;5035464;28;20380;-56
2022/03/15 11:28:13;;;;;;;22.92;15.93;;;10.60;99.90;;;;;;5017315;28;20041;-56
2022/03/15 11:30:40;;;;;;;25.75;17.00;;;10.60;99.90;;;;;;5032051;28;20076;-59
2022/03/15 11:33:07;;;;;;;22.00;15.15;;;10.50;99.90;;;;;;5030033;28;20409;-57
2022/03/15 11:35:35;;;;;;;25.73;16.27;;;10.50;99.90;;;;;;5034580;28;20233;-54
2022/03/15 11:38:04;;;;;;;22.80;14.45;;;10.50;99.90;;;;;;5036838;28;20438;-54
2022/03/15 11:40:31;;;;;;;21.88;15.77;;;10.60;99.90;;;;;;5031838;28;20033;-54
2022/03/15 11:43:33;;;;;;;20.25;13.75;;;10.60;99.90;;;;;;5039833;28;20045;-61
2022/03/15 11:46:12;;;;;;;24.30;16.02;;;10.60;99.90;;;;;;5029075;28;20040;-56
2022/03/15 11:48:51;;;;;;;24.95;17.48;;;10.70;99.90;;;;;;5027041;28;20268;-59
2022/03/15 11:51:38;;;;;;;23.92;17.73;;;10.70;99.90;;;;;;5033227;28;20506;-57
2022/03/15 11:54:44;;;;;;;21.65;15.52;;;10.60;99.90;;;;;;5032418;28;20500;-57
2022/03/15 11:57:31;;;;;;;24.95;13.82;;;10.70;99.90;;;;;;5030000;28;20048;-56
2022/03/15 11:59:57;;;;;;;22.00;14.80;;;10.70;99.90;;;;;;5016495;28;20444;-61
2022/03/15 12:02:27;;;;;;;22.77;16.30;;;10.70;99.90;;;;;;5029918;28;20167;-57
2022/03/15 12:04:54;;;;;;;21.02;16.00;;;10.70;99.90;;;;;;5032734;28;20113;-56
2022/03/15 12:07:46;;;;;;;23.08;15.05;;;10.60;99.90;;;;;;5038042;28;20045;-55
2022/03/15 12:10:35;;;;;;;20.23;13.02;;;10.60;99.90;;;;;;5033240;28;20053;-55
2022/03/15 12:13:03;;;;;;;19.27;12.95;;;10.60;99.90;;;;;;5021643;28;20040;-56
2022/03/15 12:15:38;;;;;;;15.65;10.95;;;10.70;99.90;;;;;;5033734;28;20041;-57
2022/03/15 12:18:14;;;;;;;15.13;10.75;;;10.70;99.90;;;;;;5029504;28;20049;-58
2022/03/15 12:20:46;;;;;;;15.50;11.23;;;10.70;99.90;;;;;;5027285;28;20400;-57
2022/03/15 12:23:45;;;;;;;16.00;11.23;;;10.80;99.90;;;;;;5031785;28;20052;-57
2022/03/15 12:26:27;;;;;;;18.30;11.82;;;10.90;99.90;;;;;;5052985;28;20052;-55
2022/03/15 12:29:12;;;;;;;15.25;11.27;;;11.10;99.90;;;;;;5022130;28;20196;-57
2022/03/15 12:31:46;;;;;;;16.23;10.15;;;11.20;99.90;;;;;;5029591;28;20511;-56
2022/03/15 12:34:14;;;;;;;17.63;11.50;;;11.30;99.90;;;;;;5034516;28;20518;-55
2022/03/15 12:37:01;;;;;;;22.48;14.23;;;11.40;99.90;;;;;;5042416;28;20041;-56
2022/03/15 12:39:32;;;;;;;20.27;12.25;;;11.50;99.90;;;;;;5019491;28;20047;-60